Stover, Missouri
Current Conditions -  °F | °C
As of 6:53 PM on Friday 28 Nov 2014 (Local Time) from KDMO Reporting Station
Clear Clear  
Wind Chill: 50°   Ceiling: Unl
Heat Index: 50°   Visibility: 10mi
Dew Point: 36°   Wind: 8mph
Humidity: 59%   Direction: 200°SSW
Pressure: 29.84"   Gusts: NA
Location:  38.44°N, 92.99°W
Report Text: KDMO 290053Z AUTO 20007KT 10SM CLR 10/02 A2984 RMK AO2 SLP107 T01000022
Loading
Personal Weather Stations






























Interactive Weather Map New forecast layout! Learn more

10-Day Weather Forecast

Advertisements
Track Severe Weather on mobile